Time;durP1;ratioP1;P1;durP2;ratioP2;P2;SDS_P1;SDS_P2;PMS_P1;PMS_P2;Temp;Humidity;BMP_temperature;BMP_pressure;BME280_temperature;BME280_humidity;BME280_pressure;Samples;Min_cycle;Max_cycle;Signal;HPM_P1;HPM_P2
2021/09/11 00:00:27;;;;;;;19.87;17.93;;;16.60;99.90;;;;;;5110838;28;20387;-82
2021/09/11 00:02:53;;;;;;;22.55;18.00;;;16.60;99.90;;;;;;5110913;28;20379;-82
2021/09/11 00:05:19;;;;;;;21.60;18.77;;;16.60;99.90;;;;;;5110770;28;20395;-80
2021/09/11 00:07:45;;;;;;;23.35;19.90;;;16.50;99.90;;;;;;5110872;28;20432;-83
2021/09/11 00:10:12;;;;;;;29.58;22.48;;;16.50;99.90;;;;;;5110545;28;20363;-82
2021/09/11 00:12:38;;;;;;;26.67;21.88;;;16.50;99.90;;;;;;5110606;28;20909;-79
2021/09/11 00:15:06;;;;;;;26.60;21.15;;;16.40;99.90;;;;;;5110646;28;20367;-84
2021/09/11 00:17:31;;;;;;;28.50;22.80;;;16.50;99.90;;;;;;5110651;28;20371;-83
2021/09/11 00:19:57;;;;;;;27.33;22.43;;;16.50;99.90;;;;;;5110739;28;20382;-80
2021/09/11 00:22:22;;;;;;;33.50;24.20;;;16.50;99.90;;;;;;5110588;28;20424;-81
2021/09/11 00:24:48;;;;;;;26.45;23.42;;;16.40;99.90;;;;;;5110440;28;20484;-81
2021/09/11 00:27:14;;;;;;;23.57;20.27;;;16.40;99.90;;;;;;5110548;28;20559;-82
2021/09/11 00:29:39;;;;;;;32.45;25.20;;;16.40;99.90;;;;;;5092288;28;20375;-80
2021/09/11 00:32:06;;;;;;;33.10;25.50;;;16.40;99.90;;;;;;5110569;28;20446;-80
2021/09/11 00:34:31;;;;;;;32.22;24.30;;;16.40;99.90;;;;;;5110390;28;20378;-81
2021/09/11 00:36:57;;;;;;;36.23;26.43;;;16.40;99.90;;;;;;5110415;28;20381;-82
2021/09/11 00:39:23;;;;;;;35.63;25.80;;;16.40;99.90;;;;;;5110256;28;20910;-79
2021/09/11 00:41:50;;;;;;;37.43;25.43;;;16.40;99.90;;;;;;5110401;28;20899;-82
2021/09/11 00:44:16;;;;;;;45.20;28.53;;;16.40;99.90;;;;;;5110304;28;20371;-81
2021/09/11 00:46:42;;;;;;;41.13;28.25;;;16.30;99.90;;;;;;5110280;28;20557;-80
2021/09/11 00:49:08;;;;;;;36.55;27.05;;;16.30;99.90;;;;;;5110514;28;20375;-82
2021/09/11 00:51:34;;;;;;;37.72;27.27;;;16.30;99.90;;;;;;5110189;28;20852;-80
2021/09/11 00:54:00;;;;;;;37.90;26.65;;;16.30;99.90;;;;;;5110233;28;20375;-83
2021/09/11 00:56:27;;;;;;;39.72;27.45;;;16.30;99.90;;;;;;5110195;28;20363;-81
2021/09/11 00:58:52;;;;;;;47.22;30.23;;;16.30;99.90;;;;;;5110115;28;20383;-80
2021/09/11 01:01:18;;;;;;;39.25;28.42;;;16.30;99.90;;;;;;5110921;28;20366;-81
2021/09/11 01:03:43;;;;;;;51.87;30.33;;;16.20;99.90;;;;;;5114255;28;20420;-81
2021/09/11 01:06:10;;;;;;;52.90;31.25;;;16.20;99.90;;;;;;5114079;28;20508;-80
2021/09/11 01:08:40;;;;;;;42.17;29.30;;;16.20;99.90;;;;;;5114004;28;20864;-80
2021/09/11 01:11:05;;;;;;;39.22;28.33;;;16.20;99.90;;;;;;5114092;28;20378;-81
2021/09/11 01:13:33;;;;;;;46.42;31.50;;;16.20;99.90;;;;;;5113892;28;20416;-79
2021/09/11 01:15:59;;;;;;;43.05;29.55;;;16.20;99.90;;;;;;5113774;28;20721;-81
2021/09/11 01:18:25;;;;;;;40.58;29.73;;;16.20;99.90;;;;;;5114443;28;20383;-81
2021/09/11 01:20:51;;;;;;;54.15;34.10;;;16.20;99.90;;;;;;5095446;28;20370;-80
2021/09/11 01:23:17;;;;;;;38.45;28.15;;;16.20;99.90;;;;;;5113955;28;20366;-81
2021/09/11 01:25:42;;;;;;;46.13;30.60;;;16.20;99.90;;;;;;5113771;28;20880;-81
2021/09/11 01:28:08;;;;;;;41.50;30.57;;;16.20;99.90;;;;;;5095402;28;20724;-82
2021/09/11 01:30:33;;;;;;;53.75;35.67;;;16.10;99.90;;;;;;5113927;28;20706;-79
2021/09/11 01:32:59;;;;;;;44.10;32.37;;;16.20;99.90;;;;;;5113811;28;20374;-82
2021/09/11 01:35:25;;;;;;;44.70;30.63;;;16.20;99.90;;;;;;5113557;28;20396;-81
2021/09/11 01:37:50;;;;;;;40.70;28.77;;;16.20;99.90;;;;;;5113662;28;20892;-80
2021/09/11 01:40:16;;;;;;;33.87;26.73;;;16.20;99.90;;;;;;5113592;28;20457;-80
2021/09/11 01:42:42;;;;;;;35.25;27.05;;;16.20;99.90;;;;;;5095210;28;20375;-80
2021/09/11 01:45:11;;;;;;;34.47;27.20;;;16.20;99.90;;;;;;5113378;28;20402;-81
2021/09/11 01:47:38;;;;;;;40.20;29.55;;;16.10;99.90;;;;;;5113588;28;20463;-79
2021/09/11 01:50:05;;;;;;;37.13;29.58;;;16.20;99.90;;;;;;5113150;28;20363;-80
2021/09/11 01:52:31;;;;;;;35.88;28.27;;;16.10;99.90;;;;;;5113383;28;20377;-79
2021/09/11 01:54:57;;;;;;;36.75;27.85;;;16.20;99.90;;;;;;5113273;28;20744;-80
2021/09/11 01:57:22;;;;;;;46.83;31.43;;;16.20;99.90;;;;;;5113064;28;20940;-80
2021/09/11 01:59:48;;;;;;;46.63;32.08;;;16.20;99.90;;;;;;5113354;28;20871;-82
2021/09/11 02:02:14;;;;;;;44.00;30.23;;;16.20;99.90;;;;;;5113180;28;20371;-82
2021/09/11 02:04:39;;;;;;;44.58;29.77;;;16.20;99.90;;;;;;5112973;28;20414;-80
2021/09/11 02:07:06;;;;;;;41.73;28.47;;;16.20;99.90;;;;;;5113127;28;20891;-82
2021/09/11 02:09:34;;;;;;;53.67;31.77;;;16.20;99.90;;;;;;5112795;28;20375;-83
2021/09/11 02:12:00;;;;;;;68.83;40.27;;;16.20;99.90;;;;;;5112944;28;20457;-80
2021/09/11 02:14:26;;;;;;;61.92;38.42;;;16.20;99.90;;;;;;5093388;28;20367;-80
2021/09/11 02:16:52;;;;;;;59.43;40.17;;;16.20;99.90;;;;;;5112911;28;20375;-81
2021/09/11 02:19:17;;;;;;;53.70;35.75;;;16.20;99.90;;;;;;5113110;28;20378;-82
2021/09/11 02:21:43;;;;;;;62.95;37.60;;;16.20;99.90;;;;;;5112963;28;20356;-79
2021/09/11 02:24:09;;;;;;;61.17;37.43;;;16.20;99.90;;;;;;5112894;28;20425;-80
2021/09/11 02:26:35;;;;;;;61.00;40.42;;;16.20;99.90;;;;;;5112709;28;20409;-80
2021/09/11 02:29:02;;;;;;;53.05;34.83;;;16.10;99.90;;;;;;5112682;28;20427;-79
2021/09/11 02:31:27;;;;;;;49.88;35.03;;;16.20;99.90;;;;;;5112536;28;20421;-79
2021/09/11 02:33:53;;;;;;;52.97;35.70;;;16.20;99.90;;;;;;5112491;28;20864;-81
2021/09/11 02:36:19;;;;;;;57.90;36.53;;;16.10;99.90;;;;;;5112359;28;20767;-82
2021/09/11 02:38:45;;;;;;;62.25;40.78;;;16.10;99.90;;;;;;5112395;28;20931;-79
2021/09/11 02:41:11;;;;;;;78.15;46.20;;;16.10;99.90;;;;;;5094676;28;20375;-82
2021/09/11 02:43:37;;;;;;;71.57;42.65;;;16.10;99.90;;;;;;5112298;28;20374;-79
2021/09/11 02:46:02;;;;;;;64.13;41.70;;;16.10;99.90;;;;;;5112686;28;20525;-80
2021/09/11 02:48:28;;;;;;;55.30;39.63;;;16.20;99.90;;;;;;5111903;28;20390;-79
2021/09/11 02:50:53;;;;;;;52.72;37.15;;;16.10;99.90;;;;;;5093976;28;20428;-79
2021/09/11 02:53:19;;;;;;;57.37;38.50;;;16.10;99.90;;;;;;5112112;28;20457;-80
2021/09/11 02:55:45;;;;;;;83.40;39.35;;;16.10;99.90;;;;;;5112194;28;20465;-82
2021/09/11 02:58:10;;;;;;;57.30;40.77;;;16.10;99.90;;;;;;5112004;28;20367;-81
2021/09/11 03:00:36;;;;;;;70.70;45.80;;;16.10;99.90;;;;;;5112106;28;20451;-80
2021/09/11 03:03:02;;;;;;;53.22;41.65;;;16.00;99.90;;;;;;5111826;28;20374;-83
2021/09/11 03:05:28;;;;;;;61.77;43.10;;;16.10;99.90;;;;;;5093555;28;20402;-81
2021/09/11 03:07:53;;;;;;;54.33;40.20;;;16.10;99.90;;;;;;5111826;28;20414;-82
2021/09/11 03:10:19;;;;;;;45.28;36.58;;;16.10;99.90;;;;;;5111831;28;20382;-82
2021/09/11 03:12:45;;;;;;;50.30;36.80;;;16.10;99.90;;;;;;5111769;28;20904;-81
2021/09/11 03:15:12;;;;;;;42.40;34.63;;;16.10;99.90;;;;;;5093153;28;20390;-82
2021/09/11 03:17:37;;;;;;;43.45;34.10;;;16.00;99.90;;;;;;5111505;28;20880;-79
2021/09/11 03:20:04;;;;;;;49.42;39.45;;;16.00;99.90;;;;;;5111625;28;20455;-83
2021/09/11 03:22:29;;;;;;;56.40;41.20;;;16.00;99.90;;;;;;5111486;28;20378;-81
2021/09/11 03:24:55;;;;;;;44.97;34.87;;;16.00;99.90;;;;;;5111020;28;20394;-80
2021/09/11 03:27:20;;;;;;;38.45;31.85;;;16.00;99.90;;;;;;5111397;28;20379;-82
2021/09/11 03:29:46;;;;;;;40.60;32.93;;;16.00;99.90;;;;;;5111581;28;20374;-81
2021/09/11 03:32:12;;;;;;;37.08;30.85;;;16.00;99.90;;;;;;5111102;28;20367;-80
2021/09/11 03:34:37;;;;;;;46.35;36.75;;;15.90;99.90;;;;;;5093068;28;20765;-82
2021/09/11 03:37:03;;;;;;;51.33;39.93;;;16.00;99.90;;;;;;5111288;28;20370;-81
2021/09/11 03:39:29;;;;;;;46.38;37.80;;;15.90;99.90;;;;;;5111253;28;20417;-82
2021/09/11 03:41:54;;;;;;;40.83;34.87;;;16.00;99.90;;;;;;5111582;28;20378;-81
2021/09/11 03:44:20;;;;;;;42.85;36.50;;;16.00;99.90;;;;;;5111069;28;20720;-81
2021/09/11 03:46:46;;;;;;;46.07;38.40;;;16.00;99.90;;;;;;5110879;28;20884;-81
2021/09/11 03:49:11;;;;;;;56.27;42.43;;;16.00;99.90;;;;;;5110978;28;20379;-84
2021/09/11 03:51:37;;;;;;;50.83;40.77;;;16.00;99.90;;;;;;5110981;28;20392;-80
2021/09/11 03:54:02;;;;;;;45.43;37.33;;;16.00;99.90;;;;;;5110977;28;20788;-82
2021/09/11 03:56:29;;;;;;;43.90;36.50;;;16.00;99.90;;;;;;5111044;28;20358;-82
2021/09/11 03:58:54;;;;;;;40.97;34.92;;;16.10;99.90;;;;;;5110864;28;20743;-80
2021/09/11 04:01:20;;;;;;;41.87;35.57;;;16.00;99.90;;;;;;5110802;28;20381;-81
2021/09/11 04:03:45;;;;;;;43.10;37.35;;;16.10;99.90;;;;;;5110973;28;20415;-80
2021/09/11 04:06:11;;;;;;;46.20;37.57;;;16.10;99.90;;;;;;5110730;28;20448;-81
2021/09/11 04:08:37;;;;;;;37.90;33.33;;;16.20;99.90;;;;;;5110917;28;20382;-83
2021/09/11 04:11:03;;;;;;;41.22;33.75;;;16.20;99.90;;;;;;5110719;28;20416;-80
2021/09/11 04:13:29;;;;;;;44.05;36.08;;;16.30;99.90;;;;;;5110685;28;20494;-80
2021/09/11 04:15:54;;;;;;;44.10;38.15;;;16.30;99.90;;;;;;5110460;28;20902;-81
2021/09/11 04:18:20;;;;;;;42.37;36.33;;;16.40;99.90;;;;;;5110599;28;20375;-83
2021/09/11 04:20:46;;;;;;;39.23;35.00;;;16.40;99.90;;;;;;5110874;28;20381;-81
2021/09/11 04:23:11;;;;;;;39.43;35.20;;;16.40;99.90;;;;;;5110713;28;20363;-81
2021/09/11 04:25:37;;;;;;;40.70;35.60;;;16.40;99.90;;;;;;5092372;28;20410;-82
2021/09/11 04:28:02;;;;;;;38.30;34.23;;;16.50;99.90;;;;;;5110512;28;20379;-82
2021/09/11 04:30:28;;;;;;;36.60;32.60;;;16.60;99.90;;;;;;5092207;28;20379;-81
2021/09/11 04:32:54;;;;;;;33.17;29.67;;;16.50;99.90;;;;;;5110599;28;20455;-83
2021/09/11 04:35:19;;;;;;;31.58;28.27;;;16.60;99.90;;;;;;5110388;28;20850;-81
2021/09/11 04:37:45;;;;;;;32.40;29.13;;;16.70;99.90;;;;;;5095596;28;20374;-83
2021/09/11 04:40:11;;;;;;;31.23;28.00;;;16.60;99.90;;;;;;5114616;28;20389;-81
2021/09/11 04:42:36;;;;;;;29.98;26.98;;;16.70;99.90;;;;;;5114722;28;20402;-83
2021/09/11 04:45:03;;;;;;;28.33;25.53;;;16.70;99.90;;;;;;5114497;28;20410;-82
2021/09/11 04:47:28;;;;;;;33.30;29.73;;;16.80;99.90;;;;;;5114389;28;20410;-83
2021/09/11 04:49:54;;;;;;;29.48;26.48;;;16.80;99.90;;;;;;5114552;28;20370;-81
2021/09/11 04:52:19;;;;;;;28.97;26.17;;;16.90;99.90;;;;;;5114479;28;20370;-81
2021/09/11 04:54:45;;;;;;;33.38;29.98;;;16.90;99.90;;;;;;5114486;28;20374;-82
2021/09/11 04:57:10;;;;;;;33.20;29.60;;;17.00;99.90;;;;;;5114434;28;20377;-81
2021/09/11 04:59:36;;;;;;;31.30;28.38;;;17.10;99.90;;;;;;5114922;28;20366;-84
2021/09/11 05:02:02;;;;;;;28.70;25.80;;;17.20;99.90;;;;;;5113965;28;20379;-82
2021/09/11 05:04:27;;;;;;;25.98;23.42;;;17.20;99.90;;;;;;5095774;28;20374;-81
2021/09/11 05:06:53;;;;;;;29.97;26.90;;;17.20;99.90;;;;;;5114331;28;20374;-81
2021/09/11 05:09:18;;;;;;;29.13;26.20;;;17.30;99.90;;;;;;5113975;28;20503;-83
2021/09/11 05:11:44;;;;;;;30.03;27.00;;;17.30;99.90;;;;;;5114104;28;20891;-82
2021/09/11 05:14:09;;;;;;;30.10;27.10;;;17.40;99.90;;;;;;5095597;28;20473;-80
2021/09/11 05:16:35;;;;;;;28.08;25.42;;;17.50;99.90;;;;;;5095821;28;20425;-84
2021/09/11 05:19:00;;;;;;;34.10;30.43;;;17.60;99.90;;;;;;5113761;28;20721;-81
2021/09/11 05:21:26;;;;;;;31.63;28.45;;;17.60;99.90;;;;;;5113971;28;20401;-81
2021/09/11 05:23:51;;;;;;;32.77;29.53;;;17.70;99.90;;;;;;5113835;28;20373;-80
2021/09/11 05:26:17;;;;;;;38.00;34.20;;;17.70;99.90;;;;;;5113779;28;20405;-83
2021/09/11 05:28:43;;;;;;;30.83;27.83;;;17.80;99.90;;;;;;5113704;28;20377;-82
2021/09/11 05:31:08;;;;;;;34.50;30.95;;;17.90;99.90;;;;;;5113815;28;21070;-83
2021/09/11 05:33:34;;;;;;;35.23;31.60;;;18.00;99.90;;;;;;5114015;28;20387;-82
2021/09/11 05:35:59;;;;;;;32.07;29.07;;;18.00;99.90;;;;;;5113525;28;20420;-83
2021/09/11 05:38:25;;;;;;;35.53;31.83;;;18.10;99.90;;;;;;5113563;28;20374;-81
2021/09/11 05:40:50;;;;;;;33.70;30.30;;;18.20;99.90;;;;;;5113565;28;20382;-84
2021/09/11 05:43:16;;;;;;;35.75;32.05;;;18.30;99.90;;;;;;5113516;28;20370;-83
2021/09/11 05:45:42;;;;;;;36.03;32.17;;;18.40;99.90;;;;;;5113353;28;20390;-82
2021/09/11 05:48:07;;;;;;;33.95;30.33;;;18.50;99.90;;;;;;5112950;28;20412;-81
2021/09/11 05:50:33;;;;;;;34.57;31.07;;;18.60;99.90;;;;;;5113406;28;20967;-85
2021/09/11 05:52:59;;;;;;;34.97;31.48;;;18.70;99.90;;;;;;5094797;28;20388;-80
2021/09/11 05:55:25;;;;;;;30.77;27.52;;;18.80;99.90;;;;;;5113141;28;20371;-81
2021/09/11 05:57:50;;;;;;;31.37;28.43;;;18.90;99.90;;;;;;5095027;28;20410;-81
2021/09/11 06:00:16;;;;;;;30.83;27.83;;;19.00;99.90;;;;;;5113105;28;20373;-81
2021/09/11 06:02:41;;;;;;;32.17;29.00;;;19.00;99.90;;;;;;5113222;28;20375;-84
2021/09/11 06:05:07;;;;;;;35.58;31.98;;;19.20;99.90;;;;;;5112983;28;20896;-85
2021/09/11 06:07:33;;;;;;;31.90;28.73;;;19.20;99.90;;;;;;5112788;28;20383;-83
2021/09/11 06:10:02;;;;;;;33.17;29.77;;;19.40;99.90;;;;;;5113107;28;20398;-81
2021/09/11 06:12:28;;;;;;;31.02;27.88;;;19.50;99.90;;;;;;5112556;28;21036;-82
2021/09/11 06:14:53;;;;;;;33.87;30.37;;;19.70;99.90;;;;;;5112981;28;20409;-83
2021/09/11 06:17:19;;;;;;;30.38;27.48;;;19.80;99.90;;;;;;5112856;28;20457;-81
2021/09/11 06:19:44;;;;;;;29.13;26.43;;;19.90;99.90;;;;;;5112762;28;20838;-81
2021/09/11 06:22:11;;;;;;;31.70;28.63;;;19.90;99.90;;;;;;5094615;28;20512;-84
2021/09/11 06:24:38;;;;;;;31.17;28.08;;;20.10;99.90;;;;;;5112605;28;20923;-82
2021/09/11 06:27:05;;;;;;;28.00;25.45;;;20.10;99.90;;;;;;5094328;28;20884;-82
2021/09/11 06:29:30;;;;;;;27.77;25.17;;;20.10;99.90;;;;;;5112736;28;20375;-81
2021/09/11 06:31:56;;;;;;;25.95;23.55;;;20.20;99.90;;;;;;5112726;28;20380;-82
2021/09/11 06:34:22;;;;;;;30.70;27.63;;;20.30;99.90;;;;;;5112691;28;20729;-82
2021/09/11 06:36:47;;;;;;;32.20;28.90;;;20.30;99.90;;;;;;5112642;28;20378;-82
2021/09/11 06:39:13;;;;;;;28.83;25.93;;;20.30;99.90;;;;;;5112612;28;20382;-83
2021/09/11 06:41:39;;;;;;;29.17;26.33;;;20.30;99.90;;;;;;5112446;28;20425;-85
2021/09/11 06:44:05;;;;;;;27.85;25.15;;;20.40;99.90;;;;;;5112511;28;20932;-84
2021/09/11 06:46:30;;;;;;;26.85;24.25;;;20.40;99.90;;;;;;5112344;28;20430;-80
2021/09/11 06:48:56;;;;;;;28.33;25.53;;;20.40;99.90;;;;;;5112396;28;20470;-83
2021/09/11 06:51:22;;;;;;;26.07;23.67;;;20.50;99.90;;;;;;5094125;28;20385;-82
2021/09/11 06:53:49;;;;;;;25.65;23.13;;;20.60;99.90;;;;;;5112241;28;20363;-83
2021/09/11 06:56:17;;;;;;;25.90;23.47;;;20.70;99.90;;;;;;5093843;28;20379;-85
2021/09/11 06:58:42;;;;;;;26.67;24.05;;;20.70;99.90;;;;;;5093119;28;20416;-82
2021/09/11 07:01:08;;;;;;;26.80;24.10;;;20.70;99.90;;;;;;5111869;28;20375;-83
2021/09/11 07:03:34;;;;;;;26.97;24.27;;;20.70;99.90;;;;;;5093713;28;20406;-80
2021/09/11 07:06:04;;;;;;;27.75;24.92;;;20.70;99.90;;;;;;5093636;28;20434;-83
2021/09/11 07:08:30;;;;;;;25.90;23.40;;;20.70;99.90;;;;;;5112080;28;20702;-83
2021/09/11 07:10:56;;;;;;;27.05;24.35;;;20.80;99.90;;;;;;5111622;28;20403;-84
2021/09/11 07:13:21;;;;;;;26.57;23.93;;;20.80;99.90;;;;;;5111122;28;20814;-84
2021/09/11 07:15:47;;;;;;;27.50;24.80;;;20.90;99.90;;;;;;5110381;28;20382;-83
2021/09/11 07:18:13;;;;;;;28.80;25.80;;;20.80;99.90;;;;;;5110349;28;20389;-80
2021/09/11 07:20:38;;;;;;;26.88;24.25;;;20.80;99.90;;;;;;5111145;28;20432;-83
2021/09/11 07:23:04;;;;;;;26.03;23.37;;;20.90;99.90;;;;;;5110923;28;20398;-84
2021/09/11 07:25:29;;;;;;;26.80;24.30;;;20.90;99.90;;;;;;5110881;28;20471;-84
2021/09/11 07:27:55;;;;;;;27.65;24.75;;;20.90;99.90;;;;;;5111443;28;20875;-82
2021/09/11 07:30:21;;;;;;;26.43;23.70;;;21.00;99.90;;;;;;5111481;28;20953;-83
2021/09/11 07:32:46;;;;;;;27.13;24.38;;;21.10;99.90;;;;;;5093185;28;20367;-82
2021/09/11 07:35:12;;;;;;;24.50;21.97;;;21.10;99.90;;;;;;5093193;28;20854;-83
2021/09/11 07:37:37;;;;;;;27.33;24.52;;;21.20;99.90;;;;;;5111454;28;20382;-82
2021/09/11 07:40:04;;;;;;;26.93;24.33;;;21.20;99.90;;;;;;5111323;28;20729;-81
2021/09/11 07:42:30;;;;;;;25.07;22.67;;;21.30;99.90;;;;;;5111399;28;20363;-81
2021/09/11 07:44:55;;;;;;;25.25;22.75;;;21.30;99.90;;;;;;5111291;28;20903;-82
2021/09/11 07:47:21;;;;;;;24.23;21.83;;;21.30;99.90;;;;;;5092767;28;20425;-81
2021/09/11 07:49:47;;;;;;;24.73;22.33;;;21.40;99.90;;;;;;5093131;28;20504;-85
2021/09/11 07:52:13;;;;;;;24.15;21.67;;;21.50;99.90;;;;;;5111258;28;20391;-82
2021/09/11 07:54:39;;;;;;;24.43;22.07;;;21.50;99.90;;;;;;5111087;28;20365;-86
2021/09/11 07:57:05;;;;;;;25.30;22.77;;;21.60;99.90;;;;;;5110904;28;20895;-81
2021/09/11 07:59:30;;;;;;;25.17;22.58;;;21.60;99.90;;;;;;5111223;28;20371;-83
2021/09/11 08:01:56;;;;;;;24.30;21.97;;;21.70;99.90;;;;;;5092670;28;20378;-83
2021/09/11 08:04:21;;;;;;;24.13;21.77;;;21.80;99.90;;;;;;5110862;28;20375;-85
2021/09/11 08:06:49;;;;;;;25.45;22.90;;;21.80;99.90;;;;;;5109114;28;20462;-84
2021/09/11 08:09:15;;;;;;;24.48;22.13;;;21.80;99.90;;;;;;5092257;28;20379;-84
2021/09/11 08:11:40;;;;;;;24.33;22.03;;;21.90;99.90;;;;;;5111166;28;20371;-83
2021/09/11 08:14:07;;;;;;;24.48;22.08;;;22.10;99.90;;;;;;5092695;28;20402;-81
2021/09/11 08:16:33;;;;;;;23.85;21.48;;;22.10;99.90;;;;;;5110824;28;20379;-82
2021/09/11 08:18:59;;;;;;;24.58;22.17;;;22.20;99.90;;;;;;5093517;28;20390;-84
2021/09/11 08:21:24;;;;;;;23.97;21.37;;;22.50;99.90;;;;;;5093528;28;20383;-80
2021/09/11 08:23:50;;;;;;;24.05;21.85;;;22.80;99.90;;;;;;5111473;28;20375;-82
2021/09/11 08:26:16;;;;;;;21.30;19.40;;;23.00;99.90;;;;;;5093713;28;20390;-85
2021/09/11 08:28:41;;;;;;;21.35;19.25;;;23.20;99.90;;;;;;5111687;28;20427;-83
2021/09/11 08:31:07;;;;;;;20.73;18.63;;;23.40;99.90;;;;;;5093311;28;20795;-80
2021/09/11 08:33:33;;;;;;;20.63;18.65;;;23.50;99.90;;;;;;5111618;28;20386;-80
2021/09/11 08:35:59;;;;;;;20.50;18.50;;;23.40;99.90;;;;;;5111985;28;20458;-83
2021/09/11 08:38:25;;;;;;;20.33;18.27;;;23.40;99.90;;;;;;5093420;28;20367;-82
2021/09/11 08:40:50;;;;;;;21.60;19.60;;;23.50;99.90;;;;;;5111073;28;20379;-83
2021/09/11 08:43:17;;;;;;;19.30;17.47;;;23.40;99.90;;;;;;5110527;28;20434;-82
2021/09/11 08:45:43;;;;;;;19.25;17.48;;;23.40;99.90;;;;;;5109408;28;20410;-85
2021/09/11 08:48:08;;;;;;;20.13;18.13;;;23.40;99.90;;;;;;5110189;28;20402;-83
2021/09/11 08:50:35;;;;;;;18.88;17.08;;;23.40;99.90;;;;;;5107356;28;20381;-81
2021/09/11 08:53:01;;;;;;;18.63;16.92;;;23.30;99.90;;;;;;5109895;28;20390;-83
2021/09/11 08:55:26;;;;;;;25.70;23.40;;;23.20;99.90;;;;;;5110162;28;20446;-81
2021/09/11 08:58:10;;;;;;;17.60;15.80;;;23.00;99.90;;;;;;5109656;28;20378;-84
2021/09/11 09:00:46;;;;;;;17.08;15.57;;;23.10;99.90;;;;;;5106640;28;20415;-82
2021/09/11 09:03:30;;;;;;;18.92;16.95;;;23.20;99.90;;;;;;5109158;28;20375;-83
2021/09/11 09:06:09;;;;;;;18.48;16.67;;;23.20;99.90;;;;;;5085727;28;20792;-79
2021/09/11 09:08:34;;;;;;;22.30;20.30;;;23.10;99.90;;;;;;5106509;28;20382;-82
2021/09/11 09:11:21;;;;;;;18.50;16.90;;;23.10;99.90;;;;;;5109439;28;20370;-82
2021/09/11 09:14:02;;;;;;;15.60;14.18;;;23.30;99.90;;;;;;5108656;28;20370;-81
2021/09/11 09:16:34;;;;;;;17.40;15.55;;;23.60;99.90;;;;;;5108659;28;20454;-84
2021/09/11 09:19:04;;;;;;;15.82;14.32;;;23.70;99.90;;;;;;5107658;28;20367;-82
2021/09/11 09:21:32;;;;;;;13.87;12.60;;;23.80;99.90;;;;;;5091224;28;20816;-83
2021/09/11 09:24:00;;;;;;;15.40;13.97;;;24.20;99.90;;;;;;5112774;28;20500;-83
2021/09/11 09:26:26;;;;;;;12.17;11.17;;;24.60;99.90;;;;;;5112476;28;20796;-81
2021/09/11 09:29:19;;;;;;;13.87;12.53;;;24.90;99.90;;;;;;5113137;28;20378;-81
2021/09/11 09:31:49;;;;;;;11.52;10.32;;;24.90;99.90;;;;;;5110376;28;20513;-81
2021/09/11 09:34:38;;;;;;;10.73;9.73;;;24.90;99.90;;;;;;5092006;28;20717;-84
2021/09/11 09:37:09;;;;;;;14.10;12.70;;;24.70;99.90;;;;;;5093421;28;20421;-82
2021/09/11 09:39:43;;;;;;;16.05;13.50;;;24.70;99.90;;;;;;5109996;28;21230;-81
2021/09/11 09:42:09;;;;;;;13.82;10.95;;;24.80;99.90;;;;;;5113451;28;20374;-81
2021/09/11 09:44:49;;;;;;;11.98;10.68;;;25.00;99.90;;;;;;5110470;28;20383;-82
2021/09/11 09:47:17;;;;;;;13.00;11.88;;;24.90;99.90;;;;;;5110117;28;20389;-81
2021/09/11 09:50:14;;;;;;;14.13;12.83;;;24.90;99.90;;;;;;5111965;28;20383;-81
2021/09/11 09:52:40;;;;;;;11.30;10.13;;;25.00;99.90;;;;;;5111465;28;20375;-82
2021/09/11 09:55:07;;;;;;;10.82;9.77;;;25.10;99.90;;;;;;5112738;28;20424;-81
2021/09/11 09:57:35;;;;;;;10.60;9.50;;;25.10;99.90;;;;;;5112200;28;20375;-82
2021/09/11 10:00:03;;;;;;;11.48;10.30;;;25.30;99.90;;;;;;5112262;28;20379;-81
2021/09/11 10:02:28;;;;;;;9.93;8.40;;;25.20;99.90;;;;;;5094424;28;20431;-83
2021/09/11 10:04:55;;;;;;;8.47;7.77;;;25.20;99.90;;;;;;5094416;28;20489;-82
2021/09/11 10:07:23;;;;;;;9.43;6.80;;;25.30;99.90;;;;;;5113030;28;20398;-82
2021/09/11 10:09:50;;;;;;;6.95;6.28;;;25.60;99.90;;;;;;5113095;28;20401;-82
2021/09/11 10:12:35;;;;;;;6.90;5.55;;;25.80;99.90;;;;;;5110492;28;20782;-78
2021/09/11 10:15:29;;;;;;;9.73;6.10;;;26.10;99.90;;;;;;5110732;28;20879;-80
2021/09/11 10:17:56;;;;;;;6.87;6.20;;;26.00;99.90;;;;;;5112089;28;20777;-79
2021/09/11 10:20:22;;;;;;;6.50;5.90;;;25.90;99.90;;;;;;5112469;28;20443;-78
2021/09/11 10:23:14;;;;;;;8.38;6.57;;;25.80;99.90;;;;;;5111804;28;20826;-81
2021/09/11 10:25:43;;;;;;;14.85;13.45;;;25.60;99.90;;;;;;5100706;28;20503;-80
2021/09/11 10:28:24;;;;;;;7.65;6.93;;;25.50;99.90;;;;;;5112494;28;20374;-78
2021/09/11 10:31:15;;;;;;;8.77;7.85;;;25.10;99.90;;;;;;5111580;28;20460;-80
2021/09/11 10:33:47;;;;;;;9.70;8.70;;;24.90;99.90;;;;;;5107945;28;20425;-78
2021/09/11 10:36:22;;;;;;;11.05;9.98;;;24.50;99.90;;;;;;5111856;28;20379;-82
2021/09/11 10:38:52;;;;;;;9.38;8.48;;;24.00;99.90;;;;;;5093934;28;20761;-82
2021/09/11 10:41:18;;;;;;;9.23;8.33;;;24.10;99.90;;;;;;5109706;28;20382;-82
2021/09/11 10:44:05;;;;;;;10.50;9.60;;;24.40;99.90;;;;;;5112065;28;20868;-81
2021/09/11 10:46:48;;;;;;;9.75;8.82;;;24.70;99.90;;;;;;5111154;28;20851;-81
2021/09/11 10:49:40;;;;;;;9.55;8.43;;;25.00;99.90;;;;;;5111325;28;20387;-82
2021/09/11 10:52:07;;;;;;;13.32;12.05;;;25.10;99.90;;;;;;5106669;28;20417;-83
2021/09/11 10:54:40;;;;;;;14.57;12.57;;;25.10;99.90;;;;;;5112193;28;20427;-80
2021/09/11 10:57:09;;;;;;;10.55;8.43;;;25.20;99.90;;;;;;5110463;28;21573;-80
2021/09/11 10:59:43;;;;;;;11.10;7.03;;;25.00;99.90;;;;;;5111449;28;20375;-81
2021/09/11 11:02:35;;;;;;;9.98;6.60;;;25.10;99.90;;;;;;5093193;28;20776;-79
2021/09/11 11:05:09;;;;;;;7.30;6.07;;;25.10;99.90;;;;;;5093399;28;20410;-80
2021/09/11 11:07:43;;;;;;;7.10;6.40;;;25.20;99.90;;;;;;5111112;28;20379;-80
2021/09/11 11:10:12;;;;;;;7.13;6.43;;;25.30;99.90;;;;;;5111343;28;20902;-80
2021/09/11 11:12:46;;;;;;;7.93;6.67;;;25.50;99.90;;;;;;5108680;28;20371;-80
2021/09/11 11:15:15;;;;;;;6.05;5.53;;;25.80;99.90;;;;;;5111581;28;20871;-79
2021/09/11 11:17:47;;;;;;;7.27;6.57;;;25.90;99.90;;;;;;5110776;28;20903;-80
2021/09/11 11:20:14;;;;;;;7.45;6.75;;;26.20;99.90;;;;;;5109960;28;20444;-79
2021/09/11 11:22:43;;;;;;;5.93;5.32;;;26.40;99.90;;;;;;5091916;28;20383;-82
2021/09/11 11:25:12;;;;;;;8.25;5.13;;;26.70;99.90;;;;;;5091839;28;20422;-83
2021/09/11 11:27:38;;;;;;;6.13;4.90;;;26.60;99.90;;;;;;5110695;28;20728;-84
2021/09/11 11:30:08;;;;;;;5.53;5.03;;;26.40;99.90;;;;;;5110574;28;20431;-81
2021/09/11 11:32:35;;;;;;;6.68;6.00;;;26.30;99.90;;;;;;5110035;28;20699;-82
2021/09/11 11:35:02;;;;;;;6.37;5.00;;;26.00;99.90;;;;;;5108294;28;20872;-82
2021/09/11 11:37:30;;;;;;;6.40;5.85;;;25.80;99.90;;;;;;5110371;28;20371;-80
2021/09/11 11:40:12;;;;;;;5.43;4.93;;;25.90;99.90;;;;;;5107939;28;20846;-81
2021/09/11 11:42:39;;;;;;;5.68;5.18;;;25.80;99.90;;;;;;5108431;28;20458;-81
2021/09/11 11:45:07;;;;;;;5.43;4.93;;;25.60;99.90;;;;;;5108632;28;20398;-82
2021/09/11 11:48:02;;;;;;;6.38;5.45;;;25.50;99.90;;;;;;5107653;28;20424;-85
2021/09/11 11:50:30;;;;;;;5.50;4.82;;;25.60;99.90;;;;;;5109499;28;20399;-80
2021/09/11 11:52:57;;;;;;;5.38;4.55;;;25.70;99.90;;;;;;5089461;28;20383;-81
2021/09/11 11:55:24;;;;;;;5.80;5.23;;;25.90;99.90;;;;;;5109249;28;20389;-80
2021/09/11 11:57:50;;;;;;;6.80;5.00;;;26.00;99.90;;;;;;5091675;28;20389;-80
2021/09/11 12:00:19;;;;;;;6.00;5.37;;;25.80;99.90;;;;;;5109761;28;20425;-80
2021/09/11 12:02:47;;;;;;;5.38;4.88;;;25.70;99.90;;;;;;5091580;28;20454;-80
2021/09/11 12:05:21;;;;;;;5.88;5.38;;;25.70;99.90;;;;;;5109619;28;20450;-82
2021/09/11 12:07:57;;;;;;;6.15;5.53;;;25.70;99.90;;;;;;5109477;28;20729;-80
2021/09/11 12:10:28;;;;;;;6.93;5.97;;;25.70;99.90;;;;;;5107664;28;20387;-81
2021/09/11 12:13:05;;;;;;;7.30;6.10;;;25.60;99.90;;;;;;5090132;28;20390;-82
2021/09/11 12:15:34;;;;;;;6.03;5.45;;;25.20;99.90;;;;;;5090099;28;20412;-81
2021/09/11 12:18:12;;;;;;;7.00;5.70;;;25.00;99.90;;;;;;5089737;28;20395;-81
2021/09/11 12:20:50;;;;;;;6.40;5.65;;;24.90;99.90;;;;;;5107296;28;20390;-81
2021/09/11 12:23:27;;;;;;;5.37;4.90;;;24.90;99.90;;;;;;5108143;28;20383;-82
2021/09/11 12:26:03;;;;;;;5.97;4.95;;;25.00;99.90;;;;;;5108402;28;21038;-80
2021/09/11 12:28:32;;;;;;;5.18;4.68;;;25.00;99.90;;;;;;5089718;28;20394;-82
2021/09/11 12:30:58;;;;;;;5.20;4.22;;;25.10;99.90;;;;;;5105693;28;20381;-83
2021/09/11 12:33:25;;;;;;;3.80;3.50;;;25.30;99.90;;;;;;5108486;28;20565;-82